sensor_id;sensor_type;location;lat;lon;timestamp;P1;durP1;ratioP1;P2;durP2;ratioP2
22007;SDS011;11168;56.976;24.168;2022-07-10T00:00:47;11.85;;;5.47;;
22007;SDS011;11168;56.976;24.168;2022-07-10T00:03:15;15.35;;;5.55;;
22007;SDS011;11168;56.976;24.168;2022-07-10T00:05:42;9.93;;;4.97;;
22007;SDS011;11168;56.976;24.168;2022-07-10T00:08:10;11.98;;;5.65;;
22007;SDS011;11168;56.976;24.168;2022-07-10T00:10:37;14.02;;;6.13;;
22007;SDS011;11168;56.976;24.168;2022-07-10T00:13:05;14.15;;;5.63;;
22007;SDS011;11168;56.976;24.168;2022-07-10T00:15:32;17.27;;;6.32;;
22007;SDS011;11168;56.976;24.168;2022-07-10T00:17:59;14.68;;;5.50;;
22007;SDS011;11168;56.976;24.168;2022-07-10T00:20:27;13.30;;;5.95;;
22007;SDS011;11168;56.976;24.168;2022-07-10T00:22:54;12.38;;;5.47;;
22007;SDS011;11168;56.976;24.168;2022-07-10T00:25:27;13.43;;;5.63;;
22007;SDS011;11168;56.976;24.168;2022-07-10T00:27:54;19.17;;;5.82;;
22007;SDS011;11168;56.976;24.168;2022-07-10T00:30:22;13.23;;;5.22;;
22007;SDS011;11168;56.976;24.168;2022-07-10T00:32:49;14.02;;;5.18;;
22007;SDS011;11168;56.976;24.168;2022-07-10T00:35:17;14.88;;;5.30;;
22007;SDS011;11168;56.976;24.168;2022-07-10T00:37:44;11.95;;;5.32;;
22007;SDS011;11168;56.976;24.168;2022-07-10T00:40:12;12.20;;;5.30;;
22007;SDS011;11168;56.976;24.168;2022-07-10T00:42:39;11.15;;;5.18;;
22007;SDS011;11168;56.976;24.168;2022-07-10T00:45:07;10.75;;;4.63;;
22007;SDS011;11168;56.976;24.168;2022-07-10T00:47:34;12.30;;;4.70;;
22007;SDS011;11168;56.976;24.168;2022-07-10T00:50:02;8.20;;;4.68;;
22007;SDS011;11168;56.976;24.168;2022-07-10T00:52:29;10.63;;;5.20;;
22007;SDS011;11168;56.976;24.168;2022-07-10T00:54:57;14.60;;;5.60;;
22007;SDS011;11168;56.976;24.168;2022-07-10T00:57:25;15.93;;;5.47;;
22007;SDS011;11168;56.976;24.168;2022-07-10T00:59:52;10.48;;;5.15;;
22007;SDS011;11168;56.976;24.168;2022-07-10T01:02:20;12.43;;;4.60;;
22007;SDS011;11168;56.976;24.168;2022-07-10T01:04:47;14.18;;;5.65;;
22007;SDS011;11168;56.976;24.168;2022-07-10T01:07:15;10.35;;;5.43;;
22007;SDS011;11168;56.976;24.168;2022-07-10T01:09:42;14.50;;;5.63;;
22007;SDS011;11168;56.976;24.168;2022-07-10T01:12:10;11.27;;;5.30;;
22007;SDS011;11168;56.976;24.168;2022-07-10T01:14:38;11.43;;;4.82;;
22007;SDS011;11168;56.976;24.168;2022-07-10T01:17:07;10.68;;;5.30;;
22007;SDS011;11168;56.976;24.168;2022-07-10T01:19:35;10.30;;;4.97;;
22007;SDS011;11168;56.976;24.168;2022-07-10T01:22:03;12.45;;;4.78;;
22007;SDS011;11168;56.976;24.168;2022-07-10T01:24:30;12.68;;;4.80;;
22007;SDS011;11168;56.976;24.168;2022-07-10T01:26:58;8.77;;;4.53;;
22007;SDS011;11168;56.976;24.168;2022-07-10T01:29:25;11.90;;;5.20;;
22007;SDS011;11168;56.976;24.168;2022-07-10T01:31:53;13.55;;;5.30;;
22007;SDS011;11168;56.976;24.168;2022-07-10T01:34:23;14.98;;;5.28;;
22007;SDS011;11168;56.976;24.168;2022-07-10T01:36:50;12.00;;;4.88;;
22007;SDS011;11168;56.976;24.168;2022-07-10T01:39:18;13.73;;;5.50;;
22007;SDS011;11168;56.976;24.168;2022-07-10T01:41:45;9.80;;;5.10;;
22007;SDS011;11168;56.976;24.168;2022-07-10T01:44:14;8.70;;;4.93;;
22007;SDS011;11168;56.976;24.168;2022-07-10T01:46:45;12.55;;;5.00;;
22007;SDS011;11168;56.976;24.168;2022-07-10T01:49:12;10.88;;;5.30;;
22007;SDS011;11168;56.976;24.168;2022-07-10T01:51:40;9.65;;;5.53;;
22007;SDS011;11168;56.976;24.168;2022-07-10T01:54:08;10.90;;;5.55;;
22007;SDS011;11168;56.976;24.168;2022-07-10T01:56:35;10.23;;;5.45;;
22007;SDS011;11168;56.976;24.168;2022-07-10T01:59:04;12.32;;;5.63;;
22007;SDS011;11168;56.976;24.168;2022-07-10T02:01:32;13.93;;;5.45;;
22007;SDS011;11168;56.976;24.168;2022-07-10T02:03:59;14.80;;;5.43;;
22007;SDS011;11168;56.976;24.168;2022-07-10T02:06:45;17.00;;;6.47;;
22007;SDS011;11168;56.976;24.168;2022-07-10T02:09:13;14.65;;;6.85;;
22007;SDS011;11168;56.976;24.168;2022-07-10T02:11:41;13.15;;;6.40;;
22007;SDS011;11168;56.976;24.168;2022-07-10T02:14:09;16.67;;;6.20;;
22007;SDS011;11168;56.976;24.168;2022-07-10T02:16:36;16.35;;;7.07;;
22007;SDS011;11168;56.976;24.168;2022-07-10T02:19:04;17.38;;;6.43;;
22007;SDS011;11168;56.976;24.168;2022-07-10T02:21:32;13.38;;;6.20;;
22007;SDS011;11168;56.976;24.168;2022-07-10T02:23:59;14.10;;;6.32;;
22007;SDS011;11168;56.976;24.168;2022-07-10T02:26:26;13.98;;;6.72;;
22007;SDS011;11168;56.976;24.168;2022-07-10T02:28:54;13.73;;;6.20;;
22007;SDS011;11168;56.976;24.168;2022-07-10T02:31:22;16.00;;;7.22;;
22007;SDS011;11168;56.976;24.168;2022-07-10T02:33:49;12.40;;;6.50;;
22007;SDS011;11168;56.976;24.168;2022-07-10T02:36:17;18.33;;;6.90;;
22007;SDS011;11168;56.976;24.168;2022-07-10T02:38:44;10.25;;;6.00;;
22007;SDS011;11168;56.976;24.168;2022-07-10T02:41:11;16.48;;;6.93;;
22007;SDS011;11168;56.976;24.168;2022-07-10T02:43:39;14.77;;;6.05;;
22007;SDS011;11168;56.976;24.168;2022-07-10T02:46:06;16.20;;;5.97;;
22007;SDS011;11168;56.976;24.168;2022-07-10T02:48:33;11.63;;;5.93;;
22007;SDS011;11168;56.976;24.168;2022-07-10T02:51:01;10.85;;;6.65;;
22007;SDS011;11168;56.976;24.168;2022-07-10T02:53:29;12.00;;;6.25;;
22007;SDS011;11168;56.976;24.168;2022-07-10T02:55:57;11.02;;;5.47;;
22007;SDS011;11168;56.976;24.168;2022-07-10T02:58:24;14.93;;;6.05;;
22007;SDS011;11168;56.976;24.168;2022-07-10T03:00:52;14.00;;;5.95;;
22007;SDS011;11168;56.976;24.168;2022-07-10T03:03:20;12.10;;;6.35;;
22007;SDS011;11168;56.976;24.168;2022-07-10T03:05:47;11.48;;;6.13;;
22007;SDS011;11168;56.976;24.168;2022-07-10T03:08:14;14.55;;;6.20;;
22007;SDS011;11168;56.976;24.168;2022-07-10T03:10:42;14.80;;;6.30;;
22007;SDS011;11168;56.976;24.168;2022-07-10T03:13:09;15.18;;;6.57;;
22007;SDS011;11168;56.976;24.168;2022-07-10T03:15:36;15.10;;;6.53;;
22007;SDS011;11168;56.976;24.168;2022-07-10T03:18:04;14.70;;;6.50;;
22007;SDS011;11168;56.976;24.168;2022-07-10T03:20:31;11.95;;;6.18;;
22007;SDS011;11168;56.976;24.168;2022-07-10T03:22:59;9.15;;;6.15;;
22007;SDS011;11168;56.976;24.168;2022-07-10T03:25:26;14.70;;;6.65;;
22007;SDS011;11168;56.976;24.168;2022-07-10T03:27:53;15.90;;;6.40;;
22007;SDS011;11168;56.976;24.168;2022-07-10T03:30:21;12.98;;;5.93;;
22007;SDS011;11168;56.976;24.168;2022-07-10T03:32:48;13.55;;;5.65;;
22007;SDS011;11168;56.976;24.168;2022-07-10T03:35:15;12.18;;;6.07;;
22007;SDS011;11168;56.976;24.168;2022-07-10T03:37:43;12.02;;;5.93;;
22007;SDS011;11168;56.976;24.168;2022-07-10T03:40:10;11.90;;;5.60;;
22007;SDS011;11168;56.976;24.168;2022-07-10T03:42:38;10.73;;;5.45;;
22007;SDS011;11168;56.976;24.168;2022-07-10T03:45:05;14.15;;;5.43;;
22007;SDS011;11168;56.976;24.168;2022-07-10T03:47:33;9.15;;;5.38;;
22007;SDS011;11168;56.976;24.168;2022-07-10T03:50:00;7.47;;;5.32;;
22007;SDS011;11168;56.976;24.168;2022-07-10T03:52:28;11.63;;;5.18;;
22007;SDS011;11168;56.976;24.168;2022-07-10T03:54:55;10.80;;;4.63;;
22007;SDS011;11168;56.976;24.168;2022-07-10T03:57:23;13.95;;;5.43;;
22007;SDS011;11168;56.976;24.168;2022-07-10T04:00:09;10.38;;;4.43;;
22007;SDS011;11168;56.976;24.168;2022-07-10T04:02:37;12.88;;;4.82;;
22007;SDS011;11168;56.976;24.168;2022-07-10T04:05:06;8.68;;;4.60;;
22007;SDS011;11168;56.976;24.168;2022-07-10T04:07:34;8.75;;;4.60;;
22007;SDS011;11168;56.976;24.168;2022-07-10T04:10:02;8.15;;;4.85;;
22007;SDS011;11168;56.976;24.168;2022-07-10T04:12:31;9.07;;;4.55;;
22007;SDS011;11168;56.976;24.168;2022-07-10T04:14:58;9.30;;;4.70;;
22007;SDS011;11168;56.976;24.168;2022-07-10T04:17:26;10.32;;;5.15;;
22007;SDS011;11168;56.976;24.168;2022-07-10T04:19:53;8.88;;;4.50;;
22007;SDS011;11168;56.976;24.168;2022-07-10T04:22:20;9.00;;;4.43;;
22007;SDS011;11168;56.976;24.168;2022-07-10T04:24:49;11.63;;;4.65;;
22007;SDS011;11168;56.976;24.168;2022-07-10T04:27:17;11.48;;;4.68;;
22007;SDS011;11168;56.976;24.168;2022-07-10T04:29:44;13.75;;;5.53;;
22007;SDS011;11168;56.976;24.168;2022-07-10T04:32:12;12.30;;;4.65;;
22007;SDS011;11168;56.976;24.168;2022-07-10T04:34:39;8.57;;;4.95;;
22007;SDS011;11168;56.976;24.168;2022-07-10T04:37:06;11.38;;;4.35;;
22007;SDS011;11168;56.976;24.168;2022-07-10T04:39:35;12.27;;;4.72;;
22007;SDS011;11168;56.976;24.168;2022-07-10T04:42:06;8.68;;;4.38;;
22007;SDS011;11168;56.976;24.168;2022-07-10T04:44:35;9.35;;;4.57;;
22007;SDS011;11168;56.976;24.168;2022-07-10T04:47:03;12.07;;;5.25;;
22007;SDS011;11168;56.976;24.168;2022-07-10T04:49:30;11.55;;;4.43;;
22007;SDS011;11168;56.976;24.168;2022-07-10T04:51:58;8.65;;;4.90;;
22007;SDS011;11168;56.976;24.168;2022-07-10T04:54:25;8.93;;;3.97;;
22007;SDS011;11168;56.976;24.168;2022-07-10T04:56:53;9.55;;;4.50;;
22007;SDS011;11168;56.976;24.168;2022-07-10T04:59:20;9.60;;;4.00;;
22007;SDS011;11168;56.976;24.168;2022-07-10T05:01:47;10.85;;;4.50;;
22007;SDS011;11168;56.976;24.168;2022-07-10T05:04:15;9.05;;;4.15;;
22007;SDS011;11168;56.976;24.168;2022-07-10T05:06:42;9.27;;;4.13;;
22007;SDS011;11168;56.976;24.168;2022-07-10T05:09:10;6.70;;;4.05;;
22007;SDS011;11168;56.976;24.168;2022-07-10T05:11:37;5.72;;;4.07;;
22007;SDS011;11168;56.976;24.168;2022-07-10T05:14:04;7.47;;;3.97;;
22007;SDS011;11168;56.976;24.168;2022-07-10T05:16:32;11.15;;;4.28;;
22007;SDS011;11168;56.976;24.168;2022-07-10T05:18:59;8.02;;;4.30;;
22007;SDS011;11168;56.976;24.168;2022-07-10T05:21:26;10.25;;;4.20;;
22007;SDS011;11168;56.976;24.168;2022-07-10T05:23:54;9.07;;;3.88;;
22007;SDS011;11168;56.976;24.168;2022-07-10T05:26:21;10.85;;;3.50;;
22007;SDS011;11168;56.976;24.168;2022-07-10T05:28:48;9.82;;;4.03;;
22007;SDS011;11168;56.976;24.168;2022-07-10T05:31:16;9.75;;;4.30;;
22007;SDS011;11168;56.976;24.168;2022-07-10T05:33:43;12.55;;;3.58;;
22007;SDS011;11168;56.976;24.168;2022-07-10T05:36:11;15.57;;;4.00;;
22007;SDS011;11168;56.976;24.168;2022-07-10T05:38:38;8.57;;;3.70;;
22007;SDS011;11168;56.976;24.168;2022-07-10T05:41:06;10.55;;;3.20;;
22007;SDS011;11168;56.976;24.168;2022-07-10T05:43:33;8.57;;;2.92;;
22007;SDS011;11168;56.976;24.168;2022-07-10T05:46:01;7.25;;;3.20;;
22007;SDS011;11168;56.976;24.168;2022-07-10T05:48:28;8.85;;;3.20;;
22007;SDS011;11168;56.976;24.168;2022-07-10T05:50:56;11.85;;;3.55;;
22007;SDS011;11168;56.976;24.168;2022-07-10T05:53:43;7.80;;;3.10;;
22007;SDS011;11168;56.976;24.168;2022-07-10T05:56:11;9.65;;;3.63;;
22007;SDS011;11168;56.976;24.168;2022-07-10T05:58:38;9.45;;;3.10;;
22007;SDS011;11168;56.976;24.168;2022-07-10T06:01:06;8.02;;;3.10;;
22007;SDS011;11168;56.976;24.168;2022-07-10T06:03:33;8.75;;;2.70;;
22007;SDS011;11168;56.976;24.168;2022-07-10T06:06:01;8.80;;;2.90;;
22007;SDS011;11168;56.976;24.168;2022-07-10T06:08:29;13.40;;;3.05;;
22007;SDS011;11168;56.976;24.168;2022-07-10T06:10:56;9.82;;;2.70;;
22007;SDS011;11168;56.976;24.168;2022-07-10T06:13:23;10.82;;;2.90;;
22007;SDS011;11168;56.976;24.168;2022-07-10T06:15:51;7.63;;;2.65;;
22007;SDS011;11168;56.976;24.168;2022-07-10T06:18:18;13.57;;;3.47;;
22007;SDS011;11168;56.976;24.168;2022-07-10T06:20:45;10.43;;;2.67;;
22007;SDS011;11168;56.976;24.168;2022-07-10T06:23:13;11.00;;;2.85;;
22007;SDS011;11168;56.976;24.168;2022-07-10T06:25:40;7.00;;;2.67;;
22007;SDS011;11168;56.976;24.168;2022-07-10T06:28:08;7.97;;;2.88;;
22007;SDS011;11168;56.976;24.168;2022-07-10T06:30:35;9.15;;;3.10;;
22007;SDS011;11168;56.976;24.168;2022-07-10T06:33:02;8.15;;;2.90;;
22007;SDS011;11168;56.976;24.168;2022-07-10T06:35:29;8.55;;;2.40;;
22007;SDS011;11168;56.976;24.168;2022-07-10T06:37:57;7.03;;;2.60;;
22007;SDS011;11168;56.976;24.168;2022-07-10T06:40:24;5.93;;;2.67;;
22007;SDS011;11168;56.976;24.168;2022-07-10T06:42:52;8.40;;;2.63;;
22007;SDS011;11168;56.976;24.168;2022-07-10T06:45:19;8.60;;;2.60;;
22007;SDS011;11168;56.976;24.168;2022-07-10T06:47:47;7.47;;;2.33;;
22007;SDS011;11168;56.976;24.168;2022-07-10T06:50:25;8.93;;;2.42;;
22007;SDS011;11168;56.976;24.168;2022-07-10T06:52:53;5.25;;;2.00;;
22007;SDS011;11168;56.976;24.168;2022-07-10T06:55:21;7.72;;;2.50;;
22007;SDS011;11168;56.976;24.168;2022-07-10T06:57:48;7.35;;;2.45;;
22007;SDS011;11168;56.976;24.168;2022-07-10T07:00:15;8.13;;;2.10;;
22007;SDS011;11168;56.976;24.168;2022-07-10T07:02:43;7.53;;;2.17;;
22007;SDS011;11168;56.976;24.168;2022-07-10T07:05:11;6.05;;;1.77;;
22007;SDS011;11168;56.976;24.168;2022-07-10T07:07:39;9.85;;;2.85;;
22007;SDS011;11168;56.976;24.168;2022-07-10T07:10:07;10.10;;;3.05;;
22007;SDS011;11168;56.976;24.168;2022-07-10T07:12:35;10.60;;;2.92;;
22007;SDS011;11168;56.976;24.168;2022-07-10T07:15:03;8.15;;;2.50;;
22007;SDS011;11168;56.976;24.168;2022-07-10T07:17:30;5.35;;;1.95;;
22007;SDS011;11168;56.976;24.168;2022-07-10T07:20:12;6.57;;;2.40;;
22007;SDS011;11168;56.976;24.168;2022-07-10T07:22:58;8.18;;;2.40;;
22007;SDS011;11168;56.976;24.168;2022-07-10T07:25:38;7.13;;;2.10;;
22007;SDS011;11168;56.976;24.168;2022-07-10T07:28:08;5.53;;;1.90;;
22007;SDS011;11168;56.976;24.168;2022-07-10T07:30:38;5.67;;;1.80;;
22007;SDS011;11168;56.976;24.168;2022-07-10T07:33:06;5.68;;;1.92;;
22007;SDS011;11168;56.976;24.168;2022-07-10T07:35:33;5.72;;;1.63;;
22007;SDS011;11168;56.976;24.168;2022-07-10T07:38:01;4.40;;;1.60;;
22007;SDS011;11168;56.976;24.168;2022-07-10T07:40:29;4.70;;;1.77;;
22007;SDS011;11168;56.976;24.168;2022-07-10T07:42:56;5.70;;;1.73;;
22007;SDS011;11168;56.976;24.168;2022-07-10T07:45:24;5.22;;;1.50;;
22007;SDS011;11168;56.976;24.168;2022-07-10T07:47:53;6.95;;;1.88;;
22007;SDS011;11168;56.976;24.168;2022-07-10T07:50:31;6.68;;;1.77;;
22007;SDS011;11168;56.976;24.168;2022-07-10T07:52:59;6.78;;;1.65;;
22007;SDS011;11168;56.976;24.168;2022-07-10T07:55:28;5.93;;;1.85;;
22007;SDS011;11168;56.976;24.168;2022-07-10T07:57:56;4.25;;;1.90;;
22007;SDS011;11168;56.976;24.168;2022-07-10T08:00:24;6.40;;;1.80;;
22007;SDS011;11168;56.976;24.168;2022-07-10T08:02:52;7.18;;;1.73;;
22007;SDS011;11168;56.976;24.168;2022-07-10T08:05:20;3.90;;;1.15;;
22007;SDS011;11168;56.976;24.168;2022-07-10T08:07:51;2.83;;;1.45;;
22007;SDS011;11168;56.976;24.168;2022-07-10T08:10:19;4.03;;;1.55;;
22007;SDS011;11168;56.976;24.168;2022-07-10T08:12:47;5.65;;;1.42;;
22007;SDS011;11168;56.976;24.168;2022-07-10T08:15:15;5.35;;;1.50;;
22007;SDS011;11168;56.976;24.168;2022-07-10T08:17:42;4.00;;;1.40;;
22007;SDS011;11168;56.976;24.168;2022-07-10T08:20:11;3.92;;;1.30;;
22007;SDS011;11168;56.976;24.168;2022-07-10T08:22:39;3.58;;;1.55;;
22007;SDS011;11168;56.976;24.168;2022-07-10T08:25:07;5.10;;;1.30;;
22007;SDS011;11168;56.976;24.168;2022-07-10T08:27:35;4.53;;;1.70;;
22007;SDS011;11168;56.976;24.168;2022-07-10T08:30:03;4.55;;;1.40;;
22007;SDS011;11168;56.976;24.168;2022-07-10T08:32:30;5.43;;;1.70;;
22007;SDS011;11168;56.976;24.168;2022-07-10T08:34:58;5.22;;;1.38;;
22007;SDS011;11168;56.976;24.168;2022-07-10T08:37:25;5.00;;;1.55;;
22007;SDS011;11168;56.976;24.168;2022-07-10T08:39:53;2.53;;;1.25;;
22007;SDS011;11168;56.976;24.168;2022-07-10T08:42:20;4.13;;;1.25;;
22007;SDS011;11168;56.976;24.168;2022-07-10T08:44:48;2.42;;;1.15;;
22007;SDS011;11168;56.976;24.168;2022-07-10T08:47:15;3.33;;;1.20;;
22007;SDS011;11168;56.976;24.168;2022-07-10T08:49:46;3.97;;;1.20;;
22007;SDS011;11168;56.976;24.168;2022-07-10T08:52:23;3.55;;;1.20;;
22007;SDS011;11168;56.976;24.168;2022-07-10T08:54:51;2.72;;;1.20;;
22007;SDS011;11168;56.976;24.168;2022-07-10T08:57:19;2.75;;;1.30;;
22007;SDS011;11168;56.976;24.168;2022-07-10T08:59:47;3.63;;;1.42;;
22007;SDS011;11168;56.976;24.168;2022-07-10T09:02:14;4.55;;;1.30;;
22007;SDS011;11168;56.976;24.168;2022-07-10T09:04:42;3.88;;;1.67;;
22007;SDS011;11168;56.976;24.168;2022-07-10T09:07:09;4.72;;;1.73;;
22007;SDS011;11168;56.976;24.168;2022-07-10T09:09:55;3.60;;;1.50;;
22007;SDS011;11168;56.976;24.168;2022-07-10T09:12:23;3.58;;;1.50;;
22007;SDS011;11168;56.976;24.168;2022-07-10T09:14:51;3.85;;;1.50;;
22007;SDS011;11168;56.976;24.168;2022-07-10T09:17:18;3.47;;;1.40;;
22007;SDS011;11168;56.976;24.168;2022-07-10T09:19:46;4.20;;;1.50;;
22007;SDS011;11168;56.976;24.168;2022-07-10T09:22:13;8.10;;;1.60;;
22007;SDS011;11168;56.976;24.168;2022-07-10T09:24:44;3.92;;;1.42;;
22007;SDS011;11168;56.976;24.168;2022-07-10T09:27:15;5.35;;;1.23;;
22007;SDS011;11168;56.976;24.168;2022-07-10T09:32:13;4.50;;;1.60;;
22007;SDS011;11168;56.976;24.168;2022-07-10T09:34:46;4.40;;;1.38;;
22007;SDS011;11168;56.976;24.168;2022-07-10T09:40:00;2.75;;;1.00;;
22007;SDS011;11168;56.976;24.168;2022-07-10T09:42:35;2.60;;;1.08;;
22007;SDS011;11168;56.976;24.168;2022-07-10T09:45:12;3.53;;;1.20;;
22007;SDS011;11168;56.976;24.168;2022-07-10T09:47:45;3.42;;;1.30;;
22007;SDS011;11168;56.976;24.168;2022-07-10T09:53:10;6.57;;;1.27;;
22007;SDS011;11168;56.976;24.168;2022-07-10T09:55:37;1.38;;;0.90;;
22007;SDS011;11168;56.976;24.168;2022-07-10T09:58:05;3.17;;;1.00;;
22007;SDS011;11168;56.976;24.168;2022-07-10T10:00:33;5.07;;;1.20;;
22007;SDS011;11168;56.976;24.168;2022-07-10T10:03:02;3.35;;;1.10;;
22007;SDS011;11168;56.976;24.168;2022-07-10T10:05:34;4.03;;;1.10;;
22007;SDS011;11168;56.976;24.168;2022-07-10T10:10:49;4.32;;;1.25;;
22007;SDS011;11168;56.976;24.168;2022-07-10T10:13:17;3.45;;;1.15;;
22007;SDS011;11168;56.976;24.168;2022-07-10T10:15:46;2.33;;;1.13;;
22007;SDS011;11168;56.976;24.168;2022-07-10T10:18:23;2.80;;;1.23;;
22007;SDS011;11168;56.976;24.168;2022-07-10T10:20:54;2.15;;;1.10;;
22007;SDS011;11168;56.976;24.168;2022-07-10T10:23:23;2.47;;;0.93;;
22007;SDS011;11168;56.976;24.168;2022-07-10T10:25:55;3.45;;;1.20;;
22007;SDS011;11168;56.976;24.168;2022-07-10T10:28:23;2.10;;;0.98;;
22007;SDS011;11168;56.976;24.168;2022-07-10T10:30:57;2.35;;;1.05;;
22007;SDS011;11168;56.976;24.168;2022-07-10T10:36:05;4.40;;;1.15;;
22007;SDS011;11168;56.976;24.168;2022-07-10T10:44:36;2.42;;;1.17;;
22007;SDS011;11168;56.976;24.168;2022-07-10T10:49:21;2.60;;;0.98;;
22007;SDS011;11168;56.976;24.168;2022-07-10T10:51:59;3.17;;;0.90;;
22007;SDS011;11168;56.976;24.168;2022-07-10T10:54:30;6.40;;;1.70;;
22007;SDS011;11168;56.976;24.168;2022-07-10T10:57:16;4.65;;;2.00;;
22007;SDS011;11168;56.976;24.168;2022-07-10T10:59:50;4.90;;;2.35;;
22007;SDS011;11168;56.976;24.168;2022-07-10T11:02:21;5.07;;;2.47;;
22007;SDS011;11168;56.976;24.168;2022-07-10T11:07:57;5.55;;;2.03;;
22007;SDS011;11168;56.976;24.168;2022-07-10T11:10:31;5.25;;;1.80;;
22007;SDS011;11168;56.976;24.168;2022-07-10T11:15:26;12.68;;;2.35;;
22007;SDS011;11168;56.976;24.168;2022-07-10T11:17:59;5.93;;;2.17;;
22007;SDS011;11168;56.976;24.168;2022-07-10T11:20:38;6.65;;;2.10;;
22007;SDS011;11168;56.976;24.168;2022-07-10T11:23:08;7.38;;;2.50;;
22007;SDS011;11168;56.976;24.168;2022-07-10T11:26:24;5.38;;;2.17;;
22007;SDS011;11168;56.976;24.168;2022-07-10T11:31:11;5.50;;;2.25;;
22007;SDS011;11168;56.976;24.168;2022-07-10T11:33:39;5.85;;;2.00;;
22007;SDS011;11168;56.976;24.168;2022-07-10T11:36:10;8.98;;;2.40;;
22007;SDS011;11168;56.976;24.168;2022-07-10T11:38:41;3.22;;;1.75;;
22007;SDS011;11168;56.976;24.168;2022-07-10T11:41:13;3.90;;;1.60;;
22007;SDS011;11168;56.976;24.168;2022-07-10T11:43:47;6.88;;;1.90;;
22007;SDS011;11168;56.976;24.168;2022-07-10T11:46:15;4.72;;;1.80;;
22007;SDS011;11168;56.976;24.168;2022-07-10T11:48:42;5.13;;;1.90;;
22007;SDS011;11168;56.976;24.168;2022-07-10T11:56:21;4.93;;;1.95;;
22007;SDS011;11168;56.976;24.168;2022-07-10T11:59:01;7.70;;;2.58;;
22007;SDS011;11168;56.976;24.168;2022-07-10T12:01:31;6.90;;;2.38;;
22007;SDS011;11168;56.976;24.168;2022-07-10T12:04:00;4.90;;;2.13;;
22007;SDS011;11168;56.976;24.168;2022-07-10T12:06:29;6.88;;;2.13;;
22007;SDS011;11168;56.976;24.168;2022-07-10T12:09:03;4.80;;;2.30;;
22007;SDS011;11168;56.976;24.168;2022-07-10T12:11:32;8.07;;;2.25;;
22007;SDS011;11168;56.976;24.168;2022-07-10T12:14:12;9.80;;;2.42;;
22007;SDS011;11168;56.976;24.168;2022-07-10T12:16:47;7.45;;;2.28;;
22007;SDS011;11168;56.976;24.168;2022-07-10T12:19:16;8.18;;;2.13;;
22007;SDS011;11168;56.976;24.168;2022-07-10T12:21:44;5.28;;;2.47;;
22007;SDS011;11168;56.976;24.168;2022-07-10T12:24:12;6.50;;;2.03;;
22007;SDS011;11168;56.976;24.168;2022-07-10T12:26:40;7.40;;;2.47;;
22007;SDS011;11168;56.976;24.168;2022-07-10T12:29:20;6.05;;;2.20;;
22007;SDS011;11168;56.976;24.168;2022-07-10T12:31:49;8.38;;;2.30;;
22007;SDS011;11168;56.976;24.168;2022-07-10T12:34:17;6.72;;;1.90;;
22007;SDS011;11168;56.976;24.168;2022-07-10T12:39:19;9.98;;;1.67;;
22007;SDS011;11168;56.976;24.168;2022-07-10T12:41:56;7.13;;;2.00;;
22007;SDS011;11168;56.976;24.168;2022-07-10T12:44:43;10.65;;;2.80;;
22007;SDS011;11168;56.976;24.168;2022-07-10T12:47:15;12.15;;;2.25;;
22007;SDS011;11168;56.976;24.168;2022-07-10T12:49:55;5.53;;;2.70;;
22007;SDS011;11168;56.976;24.168;2022-07-10T12:52:25;6.85;;;2.97;;
22007;SDS011;11168;56.976;24.168;2022-07-10T12:57:49;8.38;;;2.22;;
22007;SDS011;11168;56.976;24.168;2022-07-10T13:00:18;9.20;;;3.53;;
22007;SDS011;11168;56.976;24.168;2022-07-10T13:02:46;9.85;;;3.10;;
22007;SDS011;11168;56.976;24.168;2022-07-10T13:05:25;10.25;;;3.17;;
22007;SDS011;11168;56.976;24.168;2022-07-10T13:08:03;5.07;;;3.22;;
22007;SDS011;11168;56.976;24.168;2022-07-10T13:10:33;8.88;;;3.15;;
22007;SDS011;11168;56.976;24.168;2022-07-10T13:13:03;8.57;;;3.42;;
22007;SDS011;11168;56.976;24.168;2022-07-10T13:15:30;11.88;;;3.88;;
22007;SDS011;11168;56.976;24.168;2022-07-10T13:17:58;14.00;;;3.85;;
22007;SDS011;11168;56.976;24.168;2022-07-10T13:20:25;10.07;;;4.43;;
22007;SDS011;11168;56.976;24.168;2022-07-10T13:22:53;6.07;;;3.50;;
22007;SDS011;11168;56.976;24.168;2022-07-10T13:25:20;9.27;;;3.33;;
22007;SDS011;11168;56.976;24.168;2022-07-10T13:27:48;6.05;;;2.60;;
22007;SDS011;11168;56.976;24.168;2022-07-10T13:30:17;10.30;;;2.78;;
22007;SDS011;11168;56.976;24.168;2022-07-10T13:32:44;8.60;;;2.15;;
22007;SDS011;11168;56.976;24.168;2022-07-10T13:35:12;8.10;;;1.90;;
22007;SDS011;11168;56.976;24.168;2022-07-10T13:37:39;6.03;;;2.10;;
22007;SDS011;11168;56.976;24.168;2022-07-10T13:40:08;5.47;;;1.80;;
22007;SDS011;11168;56.976;24.168;2022-07-10T13:42:35;6.03;;;2.10;;
22007;SDS011;11168;56.976;24.168;2022-07-10T13:45:03;6.20;;;1.85;;
22007;SDS011;11168;56.976;24.168;2022-07-10T13:47:30;5.85;;;1.80;;
22007;SDS011;11168;56.976;24.168;2022-07-10T13:49:58;4.93;;;1.63;;
22007;SDS011;11168;56.976;24.168;2022-07-10T13:52:25;5.40;;;1.90;;
22007;SDS011;11168;56.976;24.168;2022-07-10T13:54:53;4.50;;;1.80;;
22007;SDS011;11168;56.976;24.168;2022-07-10T13:57:20;5.30;;;1.50;;
22007;SDS011;11168;56.976;24.168;2022-07-10T13:59:47;7.15;;;1.83;;
22007;SDS011;11168;56.976;24.168;2022-07-10T14:02:15;4.45;;;1.75;;
22007;SDS011;11168;56.976;24.168;2022-07-10T14:04:42;8.00;;;1.67;;
22007;SDS011;11168;56.976;24.168;2022-07-10T14:07:10;4.07;;;1.73;;
22007;SDS011;11168;56.976;24.168;2022-07-10T14:09:37;2.80;;;1.60;;
22007;SDS011;11168;56.976;24.168;2022-07-10T14:12:05;5.38;;;1.75;;
22007;SDS011;11168;56.976;24.168;2022-07-10T14:14:32;5.20;;;1.58;;
22007;SDS011;11168;56.976;24.168;2022-07-10T14:16:59;3.90;;;1.85;;
22007;SDS011;11168;56.976;24.168;2022-07-10T14:19:27;4.35;;;1.67;;
22007;SDS011;11168;56.976;24.168;2022-07-10T14:21:54;3.95;;;1.42;;
22007;SDS011;11168;56.976;24.168;2022-07-10T14:24:22;4.32;;;1.70;;
22007;SDS011;11168;56.976;24.168;2022-07-10T14:26:50;5.05;;;1.80;;
22007;SDS011;11168;56.976;24.168;2022-07-10T14:29:19;3.13;;;1.45;;
22007;SDS011;11168;56.976;24.168;2022-07-10T14:31:47;3.80;;;1.40;;
22007;SDS011;11168;56.976;24.168;2022-07-10T14:34:15;4.38;;;1.60;;
22007;SDS011;11168;56.976;24.168;2022-07-10T14:36:44;4.13;;;1.95;;
22007;SDS011;11168;56.976;24.168;2022-07-10T14:39:18;2.63;;;1.38;;
22007;SDS011;11168;56.976;24.168;2022-07-10T14:41:45;5.80;;;1.98;;
22007;SDS011;11168;56.976;24.168;2022-07-10T14:44:12;7.03;;;1.65;;
22007;SDS011;11168;56.976;24.168;2022-07-10T14:46:40;4.75;;;1.30;;
22007;SDS011;11168;56.976;24.168;2022-07-10T14:49:09;3.63;;;1.45;;
22007;SDS011;11168;56.976;24.168;2022-07-10T14:51:36;2.88;;;1.17;;
22007;SDS011;11168;56.976;24.168;2022-07-10T14:54:05;6.63;;;1.75;;
22007;SDS011;11168;56.976;24.168;2022-07-10T14:56:32;4.18;;;1.75;;
22007;SDS011;11168;56.976;24.168;2022-07-10T14:58:59;5.28;;;1.85;;
22007;SDS011;11168;56.976;24.168;2022-07-10T15:01:40;2.83;;;1.30;;
22007;SDS011;11168;56.976;24.168;2022-07-10T15:04:08;2.83;;;1.40;;
22007;SDS011;11168;56.976;24.168;2022-07-10T15:06:35;3.67;;;1.30;;
22007;SDS011;11168;56.976;24.168;2022-07-10T15:09:03;3.30;;;1.20;;
22007;SDS011;11168;56.976;24.168;2022-07-10T15:11:30;3.60;;;1.40;;
22007;SDS011;11168;56.976;24.168;2022-07-10T15:14:02;3.13;;;1.30;;
22007;SDS011;11168;56.976;24.168;2022-07-10T15:16:30;8.70;;;1.92;;
22007;SDS011;11168;56.976;24.168;2022-07-10T15:18:58;4.60;;;1.45;;
22007;SDS011;11168;56.976;24.168;2022-07-10T15:21:26;4.00;;;1.55;;